Airfield :
LOGIN :

Register | Disclaimer

   EN    FR    IT 

 










Legend :    VFR   Marginal VFR   IFR   Intensive IFR   Very Intensive IFR
Visi :
Ceiling :
>= 8 km
>= 3000ft
5 to 8 km
1000 to 3000 ft
1500m to 5 km
500 to 1000 ft
800 to 1500m
200 to 500 ft
< 800m
< 200 ft
Symbols :   Thunderstorms  Fog  Heavy snow  Heavy precipitations  Wind > 20 kt
SIGMETs :     Misc.  Thunderstorms  Icing  Turbulence  Mountain Waves  Volcanic Ashes







- Airport Elevation : 2776 ft
- IATA code : VLL


LEVD - Valladolid

CURRENT METAR :
  • 221930Z 05006KT CAVOK 22/09 Q1017

EXPIRED METARs :
  • 221900Z 06007KT 020V080 CAVOK 24/09 Q1017
  • 221830Z 08006KT 050V110 CAVOK 25/08 Q1017
  • 221800Z 06005KT 020V090 CAVOK 26/07 Q1016
  • 221730Z 06005KT 360V150 CAVOK 26/08 Q1016

TAF TAF LEVD
Valid from the 22 at 18:00 until the 23 at 18:00 UTC


221700Z 2218/2318 VRB05KT CAVOK TX34/2315Z TN14/2306Z
BECMG 2220/2222 06012KT
BECMG 2304/2306 VRB03KT
BECMG 2310/2312 22010KT
No reported NOTAMs for that airfield.
1 SIGMET reported for the Madrid FIR (LECM) :
 
SIGMET 3  cancelation
LECM SIGMET 1 VALID 220525/230000 LEVA
LECM MADRID FIR/UIR CNL SIGMET 3 212243/230000=



MET'MAP, your aeronautical weather chart ! - Copyright ORBIFLY December 2007 - Disclaimer

ORBIFLY MET'MAP TEAM :

Programming & Development : Alexandra Zaïnal
Concept & Development : Baudouin d'Aumeries
Co-Development & Prog : Marc-Olivier Méhu
Technical & hardware support : Manuel Goepfert

Contact : metmap@orbifly.com




SOURCES & CREDITS :

   NOAA